createdAt,value
2023-02-11T00:00:42.181Z,40.67
2023-02-11T00:03:25.583Z,40.50
2023-02-11T00:06:01.295Z,38.00
2023-02-11T00:08:29.161Z,42.50
2023-02-11T00:10:58.310Z,42.00
2023-02-11T00:13:26.452Z,41.00
2023-02-11T00:15:55.159Z,39.00
2023-02-11T00:18:23.097Z,40.00
2023-02-11T00:20:50.978Z,38.00
2023-02-11T00:23:20.088Z,40.00
2023-02-11T00:25:48.276Z,40.50
2023-02-11T00:28:16.421Z,40.00
2023-02-11T00:30:44.502Z,41.00
2023-02-11T00:33:12.568Z,39.00
2023-02-11T00:35:40.609Z,37.00
2023-02-11T00:38:08.943Z,37.00
2023-02-11T00:40:36.977Z,36.00
2023-02-11T00:43:05.065Z,36.00
2023-02-11T00:45:33.253Z,33.00
2023-02-11T00:48:03.265Z,39.00
2023-02-11T00:50:31.310Z,37.00
2023-02-11T00:52:59.337Z,37.00
2023-02-11T00:55:27.358Z,39.00
2023-02-11T00:57:56.814Z,35.00
2023-02-11T01:00:24.828Z,36.00
2023-02-11T01:02:53.341Z,38.00
2023-02-11T01:05:23.068Z,34.00
2023-02-11T01:07:51.178Z,34.00
2023-02-11T01:10:19.206Z,35.50
2023-02-11T01:12:47.246Z,38.50
2023-02-11T01:15:17.883Z,38.00
2023-02-11T01:17:46.053Z,35.00
2023-02-11T01:20:18.876Z,39.00
2023-02-11T01:22:46.844Z,38.00
2023-02-11T01:27:44.879Z,34.50
2023-02-11T01:30:14.065Z,32.50
2023-02-11T01:32:42.105Z,38.00
2023-02-11T01:35:10.206Z,35.00
2023-02-11T01:37:38.221Z,34.00
2023-02-11T01:40:08.293Z,35.00
2023-02-11T01:42:36.301Z,32.50
2023-02-11T01:45:43.268Z,35.00
2023-02-11T01:48:16.844Z,29.50
2023-02-11T01:50:47.922Z,34.50
2023-02-11T01:53:36.401Z,32.00
2023-02-11T01:56:25.583Z,30.00
2023-02-11T01:59:01.824Z,28.50
2023-02-11T02:01:34.259Z,33.00
2023-02-11T02:04:06.500Z,30.50
2023-02-11T02:07:02.419Z,34.00
2023-02-11T02:09:38.003Z,33.00
2023-02-11T02:12:06.131Z,34.00
2023-02-11T02:14:37.825Z,33.00
2023-02-11T02:17:05.944Z,34.00
2023-02-11T02:19:43.454Z,34.00
2023-02-11T02:22:37.565Z,31.00
2023-02-11T02:25:19.836Z,34.00
2023-02-11T02:28:39.342Z,34.00
2023-02-11T02:31:19.637Z,14.00
2023-02-11T02:33:47.843Z,34.00
2023-02-11T02:36:28.614Z,30.00
2023-02-11T02:39:04.378Z,33.00
2023-02-11T02:41:35.755Z,31.00
2023-02-11T02:44:04.758Z,32.00
2023-02-11T02:46:35.290Z,34.00
2023-02-11T02:49:04.200Z,33.00
2023-02-11T02:51:54.091Z,32.50
2023-02-11T02:54:31.276Z,31.50
2023-02-11T02:57:20.742Z,30.00
2023-02-11T03:00:14.970Z,35.00
2023-02-11T03:05:30.884Z,33.00
2023-02-11T03:08:08.577Z,30.00
2023-02-11T03:10:43.127Z,29.00
2023-02-11T03:13:13.795Z,30.00
2023-02-11T03:15:46.268Z,30.00
2023-02-11T03:18:18.184Z,28.50
2023-02-11T03:20:50.959Z,29.00
2023-02-11T03:23:30.918Z,28.00
2023-02-11T03:26:06.555Z,32.00
2023-02-11T03:28:54.714Z,30.00
2023-02-11T03:31:48.644Z,30.00
2023-02-11T03:34:27.545Z,31.00
2023-02-11T03:37:02.767Z,32.50
2023-02-11T03:39:38.719Z,34.00
2023-02-11T03:42:10.882Z,34.00
2023-02-11T03:44:50.236Z,33.00
2023-02-11T03:47:23.827Z,31.00
2023-02-11T03:52:24.882Z,33.00
2023-02-11T03:54:56.473Z,32.50
2023-02-11T03:57:24.478Z,30.00
2023-02-11T03:59:58.161Z,31.50
2023-02-11T04:02:33.348Z,34.00
2023-02-11T04:05:08.016Z,33.00
2023-02-11T04:07:36.438Z,28.00
2023-02-11T04:10:05.411Z,32.00
2023-02-11T04:12:33.439Z,32.50
2023-02-11T04:15:01.351Z,28.00
2023-02-11T04:17:29.330Z,30.50
2023-02-11T04:22:46.493Z,30.00
2023-02-11T04:25:14.452Z,32.00
2023-02-11T04:27:42.462Z,30.00
2023-02-11T04:30:12.489Z,31.00
2023-02-11T04:32:40.502Z,29.00
2023-02-11T04:35:08.780Z,31.00
2023-02-11T04:37:36.658Z,29.00
2023-02-11T04:40:04.943Z,31.00
2023-02-11T04:42:32.974Z,32.00
2023-02-11T04:45:01.128Z,31.00
2023-02-11T04:47:29.090Z,30.50
2023-02-11T04:49:57.047Z,28.00
2023-02-11T04:52:25.138Z,28.50
2023-02-11T04:54:53.074Z,30.00
2023-02-11T04:57:20.986Z,28.00
2023-02-11T04:59:49.023Z,28.50
2023-02-11T05:02:16.967Z,28.50
2023-02-11T05:04:44.926Z,22.00
2023-02-11T05:07:12.958Z,30.00
2023-02-11T05:09:40.947Z,31.00
2023-02-11T05:12:08.854Z,28.00
2023-02-11T05:14:36.946Z,29.00
2023-02-11T05:17:04.929Z,28.00
2023-02-11T05:19:32.899Z,31.00
2023-02-11T05:22:03.485Z,30.00
2023-02-11T05:24:32.729Z,25.00
2023-02-11T05:27:01.671Z,29.00
2023-02-11T05:29:29.793Z,27.00
2023-02-11T05:31:59.609Z,27.00
2023-02-11T05:34:27.562Z,28.00
2023-02-11T05:36:56.237Z,30.50
2023-02-11T05:39:24.254Z,28.50
2023-02-11T05:41:52.223Z,29.00
2023-02-11T05:44:20.110Z,29.00
2023-02-11T05:49:18.215Z,31.00
2023-02-11T05:51:46.246Z,34.50
2023-02-11T05:54:14.618Z,28.00
2023-02-11T05:56:44.835Z,31.00
2023-02-11T05:59:15.067Z,27.00
2023-02-11T06:01:43.405Z,30.00
2023-02-11T06:04:11.291Z,27.00
2023-02-11T06:06:39.169Z,30.00
2023-02-11T06:09:07.058Z,28.00
2023-02-11T06:11:34.958Z,30.50
2023-02-11T06:14:03.332Z,30.50
2023-02-11T06:16:31.440Z,28.50
2023-02-11T06:18:59.347Z,28.50
2023-02-11T06:22:07.799Z,31.50
2023-02-11T06:24:58.680Z,30.00
2023-02-11T06:27:25.539Z,30.00
2023-02-11T06:29:53.552Z,33.00
2023-02-11T06:32:42.195Z,30.00
2023-02-11T06:35:30.098Z,27.00
2023-02-11T06:37:58.010Z,29.00
2023-02-11T06:40:25.852Z,29.00
2023-02-11T06:42:54.007Z,30.00
2023-02-11T06:45:23.997Z,32.00
2023-02-11T06:47:53.240Z,30.00
2023-02-11T06:50:21.284Z,30.00
2023-02-11T06:52:49.529Z,31.00
2023-02-11T06:55:17.739Z,29.00
2023-02-11T06:57:45.802Z,30.00
2023-02-11T07:00:14.335Z,30.50
2023-02-11T07:02:42.549Z,31.00
2023-02-11T07:05:10.969Z,31.00
2023-02-11T07:07:38.925Z,32.50
2023-02-11T07:10:07.145Z,28.00
2023-02-11T07:12:35.434Z,29.50
2023-02-11T07:15:03.732Z,31.00
2023-02-11T07:17:31.778Z,28.00
2023-02-11T07:19:59.836Z,19.00
2023-02-11T07:22:30.339Z,27.50
2023-02-11T07:24:58.286Z,28.00
2023-02-11T07:27:26.234Z,31.00
2023-02-11T07:29:54.107Z,26.00
2023-02-11T07:32:22.005Z,28.00
2023-02-11T07:34:50.042Z,31.00
2023-02-11T07:37:18.359Z,30.00
2023-02-11T07:39:46.547Z,31.00
2023-02-11T07:42:14.719Z,30.00
2023-02-11T07:44:42.787Z,31.50
2023-02-11T07:47:10.772Z,32.00
2023-02-11T07:49:38.750Z,32.00
2023-02-11T07:52:06.784Z,30.50
2023-02-11T07:54:34.888Z,29.00
2023-02-11T07:57:02.818Z,33.00
2023-02-11T07:59:30.819Z,32.00
2023-02-11T08:01:58.865Z,32.00
2023-02-11T08:04:26.883Z,31.00
2023-02-11T08:06:59.122Z,30.00
2023-02-11T08:09:28.518Z,30.00
2023-02-11T08:11:56.518Z,26.00
2023-02-11T08:14:25.354Z,31.50
2023-02-11T08:16:53.453Z,32.00
2023-02-11T08:19:22.638Z,30.00
2023-02-11T08:21:51.179Z,31.00
2023-02-11T08:24:19.092Z,34.00
2023-02-11T08:26:47.032Z,32.00
2023-02-11T08:29:16.742Z,36.00
2023-02-11T08:31:47.267Z,29.00
2023-02-11T08:34:19.042Z,30.00
2023-02-11T08:36:47.926Z,32.00
2023-02-11T08:39:20.616Z,32.00
2023-02-11T08:41:54.836Z,31.00
2023-02-11T08:44:24.265Z,32.67
2023-02-11T08:46:53.068Z,33.00
2023-02-11T08:49:22.194Z,30.00
2023-02-11T08:51:50.626Z,32.00
2023-02-11T08:54:18.836Z,31.00
2023-02-11T08:56:51.462Z,31.00
2023-02-11T08:59:19.434Z,30.00
2023-02-11T09:01:48.387Z,31.00
2023-02-11T09:04:16.403Z,30.00
2023-02-11T09:06:44.481Z,35.00
2023-02-11T09:09:15.171Z,33.00
2023-02-11T09:11:44.689Z,31.50
2023-02-11T09:14:22.407Z,31.00
2023-02-11T09:16:51.991Z,31.50
2023-02-11T09:19:20.998Z,31.00
2023-02-11T09:21:49.230Z,32.00
2023-02-11T09:24:17.262Z,36.00
2023-02-11T09:26:45.502Z,32.00
2023-02-11T09:29:13.537Z,36.00
2023-02-11T09:31:41.661Z,31.00
2023-02-11T09:34:11.231Z,32.00
2023-02-11T09:36:41.182Z,32.00
2023-02-11T09:39:14.620Z,33.50
2023-02-11T09:41:55.091Z,32.00
2023-02-11T09:44:27.370Z,36.00
2023-02-11T09:47:01.679Z,35.50
2023-02-11T09:49:50.892Z,32.00
2023-02-11T09:52:44.441Z,33.67
2023-02-11T09:55:30.516Z,33.00
2023-02-11T09:57:58.674Z,35.50
2023-02-11T10:00:49.000Z,31.50
2023-02-11T10:03:36.125Z,32.50
2023-02-11T10:06:22.552Z,32.00
2023-02-11T10:09:25.667Z,35.50
2023-02-11T10:12:12.807Z,34.00
2023-02-11T10:14:50.295Z,37.00
2023-02-11T10:20:37.696Z,35.00
2023-02-11T10:23:16.947Z,36.00
2023-02-11T10:25:53.063Z,36.00
2023-02-11T10:28:25.192Z,37.00
2023-02-11T10:30:58.137Z,37.00
2023-02-11T10:33:26.291Z,31.50
2023-02-11T10:35:54.451Z,36.00
2023-02-11T10:38:23.118Z,35.00
2023-02-11T10:43:26.751Z,31.00
2023-02-11T10:45:56.757Z,31.00
2023-02-11T10:48:50.623Z,33.00
2023-02-11T10:51:22.342Z,33.00
2023-02-11T10:54:14.486Z,29.00
2023-02-11T10:56:50.177Z,32.50
2023-02-11T10:59:31.182Z,28.00
2023-02-11T11:02:23.636Z,30.00
2023-02-11T11:04:57.645Z,30.50
2023-02-11T11:07:28.944Z,32.00
2023-02-11T11:10:02.854Z,34.00
2023-02-11T11:12:34.936Z,35.00
2023-02-11T11:15:24.788Z,34.00
2023-02-11T11:21:04.300Z,35.00
2023-02-11T11:23:33.206Z,34.50
2023-02-11T11:26:15.489Z,32.00
2023-02-11T11:28:57.928Z,33.00
2023-02-11T11:31:34.553Z,35.00
2023-02-11T11:34:23.688Z,34.00
2023-02-11T11:36:52.085Z,31.50
2023-02-11T11:39:32.934Z,34.00
2023-02-11T11:42:22.094Z,35.50
2023-02-11T11:45:19.624Z,35.00
2023-02-11T11:48:06.130Z,32.00
2023-02-11T11:50:45.750Z,34.00
2023-02-11T11:53:19.058Z,35.00
2023-02-11T11:56:03.925Z,35.00
2023-02-11T11:58:33.490Z,29.00
2023-02-11T12:01:21.767Z,37.50
2023-02-11T12:04:08.597Z,32.00
2023-02-11T12:06:55.872Z,34.00
2023-02-11T12:09:44.241Z,29.00
2023-02-11T12:12:54.712Z,36.00
2023-02-11T12:15:43.026Z,34.00
2023-02-11T12:18:51.609Z,36.00
2023-02-11T12:21:26.226Z,35.00
2023-02-11T12:24:16.308Z,39.00
2023-02-11T12:26:49.463Z,38.00
2023-02-11T12:29:41.817Z,36.00
2023-02-11T12:32:32.098Z,40.00
2023-02-11T12:35:15.062Z,39.00
2023-02-11T12:38:04.976Z,38.00
2023-02-11T12:40:55.923Z,37.00
2023-02-11T12:43:25.782Z,40.00
2023-02-11T12:46:34.018Z,42.00
2023-02-11T12:49:45.152Z,38.50
2023-02-11T12:54:54.746Z,39.00
2023-02-11T12:57:27.804Z,37.50
2023-02-11T13:00:03.351Z,41.00
2023-02-11T13:02:45.800Z,35.00
2023-02-11T13:05:27.229Z,30.00
2023-02-11T13:08:21.353Z,37.00
2023-02-11T13:11:06.032Z,38.00
2023-02-11T13:13:47.817Z,38.00
2023-02-11T13:16:35.261Z,39.00
2023-02-11T13:19:15.563Z,38.50
2023-02-11T13:22:05.111Z,39.00
2023-02-11T13:25:21.948Z,33.00
2023-02-11T13:28:08.885Z,37.50
2023-02-11T13:30:46.851Z,38.00
2023-02-11T13:33:17.857Z,31.00
2023-02-11T13:36:09.528Z,38.00
2023-02-11T13:38:38.899Z,36.00
2023-02-11T13:41:06.950Z,37.00
2023-02-11T13:46:07.804Z,38.00
2023-02-11T13:48:40.403Z,36.00
2023-02-11T13:51:13.402Z,36.50
2023-02-11T13:54:08.512Z,41.00
2023-02-11T13:56:44.150Z,38.00
2023-02-11T13:59:27.796Z,41.00
2023-02-11T14:02:36.796Z,38.00
2023-02-11T14:05:23.562Z,36.00
2023-02-11T14:08:28.776Z,38.00
2023-02-11T14:10:58.174Z,38.00
2023-02-11T14:13:34.495Z,40.00
2023-02-11T14:16:07.352Z,40.00
2023-02-11T14:18:35.363Z,38.50
2023-02-11T14:21:24.102Z,38.00
2023-02-11T14:23:53.785Z,37.00
2023-02-11T14:26:21.904Z,39.00
2023-02-11T14:28:59.732Z,40.00
2023-02-11T14:31:34.288Z,37.00
2023-02-11T14:34:39.532Z,44.00
2023-02-11T14:37:36.649Z,42.50
2023-02-11T14:40:24.675Z,41.00
2023-02-11T14:42:55.346Z,43.00
2023-02-11T14:45:29.126Z,44.00
2023-02-11T14:48:08.453Z,40.00
2023-02-11T14:50:52.061Z,42.50
2023-02-11T14:53:26.117Z,41.00
2023-02-11T14:55:55.681Z,39.50
2023-02-11T14:58:27.953Z,40.00
2023-02-11T15:01:01.020Z,42.00
2023-02-11T15:03:36.659Z,41.50
2023-02-11T15:06:14.266Z,41.00
2023-02-11T15:08:55.198Z,42.00
2023-02-11T15:13:55.338Z,38.00
2023-02-11T15:16:27.593Z,38.00
2023-02-11T15:21:34.582Z,42.00
2023-02-11T15:24:24.046Z,40.00
2023-02-11T15:27:01.375Z,44.50
2023-02-11T15:29:37.881Z,44.00
2023-02-11T15:32:13.001Z,41.00
2023-02-11T15:34:41.560Z,42.00
2023-02-11T15:37:36.744Z,42.00
2023-02-11T15:40:16.259Z,42.00
2023-02-11T15:43:03.004Z,37.00
2023-02-11T15:45:41.969Z,41.00
2023-02-11T15:48:12.773Z,41.00
2023-02-11T15:50:43.270Z,39.00
2023-02-11T15:53:40.680Z,40.50
2023-02-11T15:56:15.886Z,42.00
2023-02-11T15:58:47.579Z,44.00
2023-02-11T16:01:15.838Z,41.00
2023-02-11T16:03:49.413Z,40.00
2023-02-11T16:06:35.559Z,39.00
2023-02-11T16:09:21.651Z,41.50
2023-02-11T16:11:49.508Z,39.00
2023-02-11T16:14:39.520Z,43.00
2023-02-11T16:17:33.840Z,43.00
2023-02-11T16:20:02.169Z,45.00
2023-02-11T16:25:03.933Z,44.50
2023-02-11T16:27:40.311Z,45.00
2023-02-11T16:30:37.670Z,43.00
2023-02-11T16:33:06.700Z,45.00
2023-02-11T16:35:34.675Z,42.00
2023-02-11T16:38:02.760Z,46.00
2023-02-11T16:40:30.762Z,40.50
2023-02-11T16:42:58.783Z,46.00
2023-02-11T16:47:55.207Z,42.00
2023-02-11T16:50:25.622Z,44.50
2023-02-11T16:52:54.078Z,39.50
2023-02-11T16:57:50.562Z,42.00
2023-02-11T17:00:20.011Z,42.00
2023-02-11T17:02:48.049Z,43.00
2023-02-11T17:05:20.303Z,41.00
2023-02-11T17:07:48.617Z,41.00
2023-02-11T17:10:19.922Z,40.50
2023-02-11T17:12:49.601Z,37.00
2023-02-11T17:15:17.557Z,37.00
2023-02-11T17:17:45.996Z,39.00
2023-02-11T17:20:14.978Z,35.50
2023-02-11T17:22:43.042Z,36.33
2023-02-11T17:25:11.435Z,38.00
2023-02-11T17:27:39.350Z,39.00
2023-02-11T17:30:08.269Z,39.00
2023-02-11T17:32:37.012Z,38.00
2023-02-11T17:35:08.506Z,37.50
2023-02-11T17:37:36.519Z,42.00
2023-02-11T17:40:04.980Z,40.00
2023-02-11T17:42:32.928Z,39.00
2023-02-11T17:45:00.876Z,41.00
2023-02-11T17:47:30.174Z,36.00
2023-02-11T17:49:58.381Z,56.00
2023-02-11T17:52:28.215Z,43.00
2023-02-11T17:54:56.395Z,41.00
2023-02-11T17:57:24.288Z,39.00
2023-02-11T17:59:54.628Z,38.00
2023-02-11T18:02:22.599Z,37.00
2023-02-11T18:04:52.465Z,35.00
2023-02-11T18:07:20.413Z,38.00
2023-02-11T18:09:48.352Z,40.00
2023-02-11T18:12:18.345Z,41.00
2023-02-11T18:14:46.345Z,39.00
2023-02-11T18:17:14.310Z,37.00
2023-02-11T18:22:10.062Z,38.00
2023-02-11T18:24:38.039Z,37.00
2023-02-11T18:27:06.103Z,35.00
2023-02-11T18:29:34.150Z,36.00
2023-02-11T18:32:02.193Z,37.00
2023-02-11T18:34:30.255Z,37.00
2023-02-11T18:36:58.300Z,36.00
2023-02-11T18:39:26.536Z,37.50
2023-02-11T18:41:56.860Z,36.00
2023-02-11T18:44:26.177Z,36.00
2023-02-11T18:46:54.211Z,35.50
2023-02-11T18:49:22.139Z,31.00
2023-02-11T18:51:50.151Z,34.00
2023-02-11T18:54:18.147Z,34.00
2023-02-11T18:56:46.176Z,33.00
2023-02-11T18:59:22.195Z,34.00
2023-02-11T19:01:51.175Z,35.00
2023-02-11T19:04:20.205Z,35.00
2023-02-11T19:06:49.661Z,32.00
2023-02-11T19:09:37.737Z,34.00
2023-02-11T19:14:36.189Z,32.00
2023-02-11T19:17:07.567Z,31.00
2023-02-11T19:20:16.086Z,29.50
2023-02-11T19:22:44.471Z,31.00
2023-02-11T19:25:13.291Z,33.00
2023-02-11T19:27:41.966Z,32.50
2023-02-11T19:30:10.708Z,37.00
2023-02-11T19:32:38.722Z,32.00
2023-02-11T19:35:07.127Z,32.00
2023-02-11T19:37:35.086Z,32.00
2023-02-11T19:40:26.423Z,34.00
2023-02-11T19:42:54.491Z,36.00
2023-02-11T19:45:22.969Z,36.00
2023-02-11T19:47:55.749Z,35.00
2023-02-11T19:50:24.420Z,29.00
2023-02-11T19:52:52.273Z,32.50
2023-02-11T19:55:20.290Z,34.50
2023-02-11T19:57:48.155Z,32.00
2023-02-11T20:00:16.496Z,34.00
2023-02-11T20:05:12.401Z,31.00
2023-02-11T20:07:40.276Z,31.00
2023-02-11T20:10:08.741Z,26.50
2023-02-11T20:12:37.213Z,27.50
2023-02-11T20:15:05.846Z,29.50
2023-02-11T20:17:33.795Z,24.00
2023-02-11T20:20:01.897Z,26.00
2023-02-11T20:22:29.817Z,23.00
2023-02-11T20:24:57.769Z,25.50
2023-02-11T20:27:29.193Z,27.00
2023-02-11T20:29:57.115Z,25.00
2023-02-11T20:32:45.625Z,25.00
2023-02-11T20:35:13.492Z,22.00
2023-02-11T20:37:44.037Z,27.00
2023-02-11T20:40:12.676Z,23.00
2023-02-11T20:42:40.616Z,15.00
2023-02-11T20:45:09.995Z,16.00
2023-02-11T20:47:38.618Z,22.00
2023-02-11T20:50:07.429Z,22.00
2023-02-11T20:52:37.058Z,21.00
2023-02-11T20:55:05.292Z,22.00
2023-02-11T20:57:35.374Z,22.00
2023-02-11T21:00:04.456Z,17.00
2023-02-11T21:02:32.405Z,20.00
2023-02-11T21:05:00.394Z,19.00
2023-02-11T21:07:29.523Z,21.00
2023-02-11T21:09:57.449Z,19.00
2023-02-11T21:12:25.407Z,16.50
2023-02-11T21:14:55.083Z,16.00
2023-02-11T21:17:23.211Z,19.00
2023-02-11T21:19:51.199Z,19.00
2023-02-11T21:22:27.989Z,16.50
2023-02-11T21:24:55.936Z,15.33
2023-02-11T21:27:29.321Z,17.00
2023-02-11T21:29:57.195Z,14.00
2023-02-11T21:32:25.079Z,18.50
2023-02-11T21:34:54.189Z,15.00
2023-02-11T21:37:23.357Z,17.00
2023-02-11T21:39:51.424Z,22.00
2023-02-11T21:42:19.377Z,22.00
2023-02-11T21:44:47.502Z,24.00
2023-02-11T21:47:15.657Z,23.00
2023-02-11T21:49:43.594Z,18.50
2023-02-11T21:52:11.567Z,17.50
2023-02-11T21:54:39.532Z,14.00
2023-02-11T21:57:08.653Z,15.67
2023-02-11T22:02:04.599Z,15.00
2023-02-11T22:04:33.589Z,16.00
2023-02-11T22:07:03.073Z,17.50
2023-02-11T22:09:30.919Z,19.00
2023-02-11T22:11:58.868Z,17.50
2023-02-11T22:14:26.838Z,16.00
2023-02-11T22:16:54.761Z,19.50
2023-02-11T22:19:24.205Z,19.50
2023-02-11T22:21:52.185Z,19.00
2023-02-11T22:24:20.804Z,18.50
2023-02-11T22:26:48.689Z,17.00
2023-02-11T22:29:17.101Z,11.00
2023-02-11T22:31:45.262Z,19.00
2023-02-11T22:34:13.291Z,21.00
2023-02-11T22:36:41.850Z,25.00
2023-02-11T22:39:15.867Z,27.00
2023-02-11T22:41:45.206Z,25.00
2023-02-11T22:44:13.988Z,23.50
2023-02-11T22:49:13.723Z,19.33
2023-02-11T22:56:40.939Z,19.00
2023-02-11T22:59:13.604Z,16.00
2023-02-11T23:01:42.833Z,14.50
2023-02-11T23:06:40.847Z,15.00
2023-02-11T23:09:12.440Z,15.00
2023-02-11T23:11:41.766Z,12.00
2023-02-11T23:14:12.177Z,10.00
2023-02-11T23:16:40.361Z,15.50
2023-02-11T23:19:09.119Z,12.00
2023-02-11T23:24:14.046Z,11.00
2023-02-11T23:26:43.872Z,12.00
2023-02-11T23:29:12.691Z,13.00
2023-02-11T23:34:25.443Z,10.00
2023-02-11T23:36:53.570Z,9.00
2023-02-11T23:39:21.507Z,10.00
2023-02-11T23:41:52.912Z,0.00
2023-02-11T23:44:20.834Z,12.00
2023-02-11T23:46:48.736Z,12.50
2023-02-11T23:49:16.648Z,11.00
2023-02-11T23:51:44.688Z,15.00
2023-02-11T23:54:14.734Z,13.00
2023-02-11T23:56:42.870Z,13.67
2023-02-11T23:59:11.829Z,8.50
